CheckWX is a tool to help pilots better visualize weather data.  It is not intended as a substitute for an official pre-flight weather briefing.

21:04:21 UTC

KONO METAR
Ontario Municipal Airport
Ontario, Oregon, USA
Current

11 mins ago

KONO 232053Z AUTO 12004KT 10SM OVC090 07/M03 A3013 RMK AO2 SLP216 T00671033 58009
Observed
Feb-23 @ 20:53 UTC
Wind
  • 120° at 4 KTS
Visibility
10 SM
Flight Rules
VFR
Cloud Levels
  • Overcast at 9,000' AGL
Temperature
C / 45°F
Dewpoint
-3°C / 27°F
Humidity
49%
Altimeter
30.13" Hg
Pressure
1021.6 hPa
Previous

1 hour ago

KONO 231953Z AUTO 00000KT 10SM OVC090 06/M03 A3014 RMK AO2 SLP222 T00611033
Observed
Feb-23 @ 19:53 UTC
Visibility
10 SM
Flight Rules
VFR
Cloud Levels
  • Overcast at 9,000' AGL
Temperature
C / 43°F
Dewpoint
-3°C / 27°F
Humidity
53%
Altimeter
30.14" Hg
Pressure
1022.2 hPa
Previous

2 hours ago

KONO 231853Z AUTO 00000KT 10SM OVC100 04/M04 A3016 RMK AO2 SLP230 T00441039
Observed
Feb-23 @ 18:53 UTC
Visibility
10 SM
Flight Rules
VFR
Cloud Levels
  • Overcast at 10,000' AGL
Temperature
C / 39°F
Dewpoint
-4°C / 25°F
Humidity
56%
Altimeter
30.16" Hg
Pressure
1023 hPa